Casselton, ND

7:38 AM CDT on July 27, 2016 (GMT -0500)
| | Change Station

Elev -9999 ft 0.00 °N, 0.00 °E | Updated

Clear
Clear
70 °F
Feels Like 70 °F
N
11
Wind Variable Wind from North
Gusts mph

Today
High -- | Low -- °F
--% Chance of Precip.
Yesterday
High -- | Low -- °F
Precip. -- in
Pressure 29.99 in
Visibility 10.0 miles
Clouds Scattered Clouds 5000 ft
Dew Point 61 °F
Humidity 73%
Rainfall --
Snow Depth Not available.
6:03 AM 9:06 PM
Last Quarter, 43% visible
METAR KFAR 271153Z 01009KT 10SM SCT050 18/16 A2999 RMK AO2 SLP154 60002 70136 T01830161 10206 20183 55001
Pressure 29.99 in
Visibility 10.0 miles
Clouds Scattered Clouds 5000 ft
Dew Point 61 °F
Humidity 73%
Rainfall --
Snow Depth Not available.
6:03 AM 9:06 PM
Last Quarter, 43% visible
METAR KFAR 271153Z 01009KT 10SM SCT050 18/16 A2999 RMK AO2 SLP154 60002 70136 T01830161 10206 20183 55001

10-Day Weather Forecast

Almanac

Astronomy

Jul. 27, 2016 Rise Set
Actual Time
Civil Twilight
Nautical Twilight
Astronomical Twilight
Moon
Length of Visible Light
Length of Day
Tomorrow will be .
, % of the Moon is Illuminated

Today's Extremes

State Highs State Lows

Community

WunderPhotos

Upload Photos

1,927,838 photos uploaded!

WunderBlog® & News

Nearby

Air Quality

  Air Quality AQ Index Pollutant
Not available.

Snow Depth

Station Depth Elevation

Earthquake Activity

City Distance Mag. Time & Date
Minimum magnitude displayed is 2.5.

Coastal Water Temperatures

Place Temperature

Stations

Nearby Weather Stations

Station Location Temp. Windchill Dew Point Humidity Wind Precip. Elev Updated Type
                   

Watches & Warnings

There are currently no watches in effect.